sensor_id;sensor_type;location;lat;lon;timestamp;temperature;humidity
33837;DHT22;20140;49.356;8.812;2023-05-02T00:01:55;11.20;99.90
33837;DHT22;20140;49.356;8.812;2023-05-02T00:04:21;11.20;99.90
33837;DHT22;20140;49.356;8.812;2023-05-02T00:06:47;11.10;99.90
33837;DHT22;20140;49.356;8.812;2023-05-02T00:09:13;11.20;99.90
33837;DHT22;20140;49.356;8.812;2023-05-02T00:11:39;11.20;99.90
33837;DHT22;20140;49.356;8.812;2023-05-02T00:14:05;11.20;99.90
33837;DHT22;20140;49.356;8.812;2023-05-02T00:16:30;11.10;99.90
33837;DHT22;20140;49.356;8.812;2023-05-02T00:18:56;11.20;99.90
33837;DHT22;20140;49.356;8.812;2023-05-02T00:21:21;11.10;99.90
33837;DHT22;20140;49.356;8.812;2023-05-02T00:23:47;11.10;99.90
33837;DHT22;20140;49.356;8.812;2023-05-02T00:26:12;11.10;99.90
33837;DHT22;20140;49.356;8.812;2023-05-02T00:28:38;11.20;99.90
33837;DHT22;20140;49.356;8.812;2023-05-02T00:31:04;11.10;99.90
33837;DHT22;20140;49.356;8.812;2023-05-02T00:33:30;11.10;99.90
33837;DHT22;20140;49.356;8.812;2023-05-02T00:35:55;11.10;99.90
33837;DHT22;20140;49.356;8.812;2023-05-02T00:38:21;11.10;99.90
33837;DHT22;20140;49.356;8.812;2023-05-02T00:40:47;11.10;99.90
33837;DHT22;20140;49.356;8.812;2023-05-02T00:43:14;11.10;99.90
33837;DHT22;20140;49.356;8.812;2023-05-02T00:45:41;11.10;99.90
33837;DHT22;20140;49.356;8.812;2023-05-02T00:48:08;11.00;99.90
33837;DHT22;20140;49.356;8.812;2023-05-02T00:50:38;11.00;99.90
33837;DHT22;20140;49.356;8.812;2023-05-02T00:53:08;11.00;99.90
33837;DHT22;20140;49.356;8.812;2023-05-02T00:55:35;11.00;99.90
33837;DHT22;20140;49.356;8.812;2023-05-02T00:58:10;11.00;99.90
33837;DHT22;20140;49.356;8.812;2023-05-02T01:03:24;10.90;99.90
33837;DHT22;20140;49.356;8.812;2023-05-02T01:12:17;10.90;99.90
33837;DHT22;20140;49.356;8.812;2023-05-02T01:14:47;10.90;99.90
33837;DHT22;20140;49.356;8.812;2023-05-02T01:17:16;10.90;99.90
33837;DHT22;20140;49.356;8.812;2023-05-02T01:19:48;11.00;99.90
33837;DHT22;20140;49.356;8.812;2023-05-02T01:22:16;10.90;99.90
33837;DHT22;20140;49.356;8.812;2023-05-02T01:24:56;10.80;99.90
33837;DHT22;20140;49.356;8.812;2023-05-02T01:30:27;10.80;99.90
33837;DHT22;20140;49.356;8.812;2023-05-02T01:32:56;10.70;99.90
33837;DHT22;20140;49.356;8.812;2023-05-02T01:35:23;10.70;99.90
33837;DHT22;20140;49.356;8.812;2023-05-02T01:37:51;10.70;99.90
33837;DHT22;20140;49.356;8.812;2023-05-02T01:40:19;10.60;99.90
33837;DHT22;20140;49.356;8.812;2023-05-02T01:42:46;10.60;99.90
33837;DHT22;20140;49.356;8.812;2023-05-02T01:45:13;10.60;99.90
33837;DHT22;20140;49.356;8.812;2023-05-02T01:47:40;10.60;99.90
33837;DHT22;20140;49.356;8.812;2023-05-02T01:50:10;10.60;99.90
33837;DHT22;20140;49.356;8.812;2023-05-02T01:52:38;10.50;99.90
33837;DHT22;20140;49.356;8.812;2023-05-02T01:55:08;10.50;99.90
33837;DHT22;20140;49.356;8.812;2023-05-02T01:57:36;10.40;99.90
33837;DHT22;20140;49.356;8.812;2023-05-02T02:00:03;10.40;99.90
33837;DHT22;20140;49.356;8.812;2023-05-02T02:02:29;10.40;99.90
33837;DHT22;20140;49.356;8.812;2023-05-02T02:04:56;10.30;99.90
33837;DHT22;20140;49.356;8.812;2023-05-02T02:07:23;10.20;99.90
33837;DHT22;20140;49.356;8.812;2023-05-02T02:09:49;9.90;99.90
33837;DHT22;20140;49.356;8.812;2023-05-02T02:12:27;10.00;99.90
33837;DHT22;20140;49.356;8.812;2023-05-02T02:15:02;9.90;99.90
33837;DHT22;20140;49.356;8.812;2023-05-02T02:17:40;10.00;99.90
33837;DHT22;20140;49.356;8.812;2023-05-02T02:20:09;10.00;99.90
33837;DHT22;20140;49.356;8.812;2023-05-02T02:22:37;9.90;99.90
33837;DHT22;20140;49.356;8.812;2023-05-02T02:25:09;10.00;99.90
33837;DHT22;20140;49.356;8.812;2023-05-02T02:27:36;10.00;99.90
33837;DHT22;20140;49.356;8.812;2023-05-02T02:30:02;10.00;99.90
33837;DHT22;20140;49.356;8.812;2023-05-02T02:32:28;10.00;99.90
33837;DHT22;20140;49.356;8.812;2023-05-02T02:34:54;9.90;99.90
33837;DHT22;20140;49.356;8.812;2023-05-02T02:37:28;9.90;99.90
33837;DHT22;20140;49.356;8.812;2023-05-02T02:40:07;9.90;99.90
33837;DHT22;20140;49.356;8.812;2023-05-02T02:45:23;9.80;99.90
33837;DHT22;20140;49.356;8.812;2023-05-02T02:50:41;9.90;99.90
33837;DHT22;20140;49.356;8.812;2023-05-02T02:53:16;9.90;99.90
33837;DHT22;20140;49.356;8.812;2023-05-02T02:55:59;9.80;99.90
33837;DHT22;20140;49.356;8.812;2023-05-02T02:59:03;9.80;99.90
33837;DHT22;20140;49.356;8.812;2023-05-02T03:01:31;9.80;99.90
33837;DHT22;20140;49.356;8.812;2023-05-02T03:03:57;9.70;99.90
33837;DHT22;20140;49.356;8.812;2023-05-02T03:06:23;9.70;99.90
33837;DHT22;20140;49.356;8.812;2023-05-02T03:08:49;9.60;99.90
33837;DHT22;20140;49.356;8.812;2023-05-02T03:11:15;9.70;99.90
33837;DHT22;20140;49.356;8.812;2023-05-02T03:13:41;9.80;99.90
33837;DHT22;20140;49.356;8.812;2023-05-02T03:18:53;9.80;99.90
33837;DHT22;20140;49.356;8.812;2023-05-02T03:21:19;9.80;99.90
33837;DHT22;20140;49.356;8.812;2023-05-02T03:23:45;9.80;99.90
33837;DHT22;20140;49.356;8.812;2023-05-02T03:26:10;9.90;99.90
33837;DHT22;20140;49.356;8.812;2023-05-02T03:28:36;10.00;99.90
33837;DHT22;20140;49.356;8.812;2023-05-02T03:31:01;9.90;99.90
33837;DHT22;20140;49.356;8.812;2023-05-02T03:33:27;10.00;99.90
33837;DHT22;20140;49.356;8.812;2023-05-02T03:35:52;9.90;99.90
33837;DHT22;20140;49.356;8.812;2023-05-02T03:38:18;10.00;99.90
33837;DHT22;20140;49.356;8.812;2023-05-02T03:40:43;10.00;99.90
33837;DHT22;20140;49.356;8.812;2023-05-02T03:43:09;10.10;99.90
33837;DHT22;20140;49.356;8.812;2023-05-02T03:45:35;10.10;99.90
33837;DHT22;20140;49.356;8.812;2023-05-02T03:48:01;10.10;99.90
33837;DHT22;20140;49.356;8.812;2023-05-02T03:50:27;10.00;99.90
33837;DHT22;20140;49.356;8.812;2023-05-02T03:52:52;10.10;99.90
33837;DHT22;20140;49.356;8.812;2023-05-02T03:55:18;10.00;99.90
33837;DHT22;20140;49.356;8.812;2023-05-02T03:57:43;9.90;99.90
33837;DHT22;20140;49.356;8.812;2023-05-02T04:00:10;9.80;99.90
33837;DHT22;20140;49.356;8.812;2023-05-02T04:02:36;9.80;99.90
33837;DHT22;20140;49.356;8.812;2023-05-02T04:05:01;9.90;99.90
33837;DHT22;20140;49.356;8.812;2023-05-02T04:07:27;9.80;99.90
33837;DHT22;20140;49.356;8.812;2023-05-02T04:09:52;9.70;99.90
33837;DHT22;20140;49.356;8.812;2023-05-02T04:12:18;9.70;99.90
33837;DHT22;20140;49.356;8.812;2023-05-02T04:14:44;9.70;99.90
33837;DHT22;20140;49.356;8.812;2023-05-02T04:17:09;9.60;99.90
33837;DHT22;20140;49.356;8.812;2023-05-02T04:19:35;9.50;99.90
33837;DHT22;20140;49.356;8.812;2023-05-02T04:22:01;9.40;99.90
33837;DHT22;20140;49.356;8.812;2023-05-02T04:24:27;9.50;99.90
33837;DHT22;20140;49.356;8.812;2023-05-02T04:26:53;9.40;99.90
33837;DHT22;20140;49.356;8.812;2023-05-02T04:29:19;9.40;99.90
33837;DHT22;20140;49.356;8.812;2023-05-02T04:31:44;9.40;99.90
33837;DHT22;20140;49.356;8.812;2023-05-02T04:34:10;9.40;99.90
33837;DHT22;20140;49.356;8.812;2023-05-02T04:36:36;9.30;99.90
33837;DHT22;20140;49.356;8.812;2023-05-02T04:39:01;9.30;99.90
33837;DHT22;20140;49.356;8.812;2023-05-02T04:41:28;9.20;99.90
33837;DHT22;20140;49.356;8.812;2023-05-02T04:43:53;9.20;99.90
33837;DHT22;20140;49.356;8.812;2023-05-02T04:46:19;9.20;99.90
33837;DHT22;20140;49.356;8.812;2023-05-02T04:48:44;9.20;99.90
33837;DHT22;20140;49.356;8.812;2023-05-02T04:51:10;9.20;99.90
33837;DHT22;20140;49.356;8.812;2023-05-02T04:53:36;9.20;99.90
33837;DHT22;20140;49.356;8.812;2023-05-02T04:56:02;9.20;99.90
33837;DHT22;20140;49.356;8.812;2023-05-02T04:58:28;9.10;99.90
33837;DHT22;20140;49.356;8.812;2023-05-02T05:00:53;9.20;99.90
33837;DHT22;20140;49.356;8.812;2023-05-02T05:03:19;9.20;99.90
33837;DHT22;20140;49.356;8.812;2023-05-02T05:05:45;9.20;99.90
33837;DHT22;20140;49.356;8.812;2023-05-02T05:08:11;9.20;99.90
33837;DHT22;20140;49.356;8.812;2023-05-02T05:10:36;9.30;99.90
33837;DHT22;20140;49.356;8.812;2023-05-02T05:13:02;9.40;99.90
33837;DHT22;20140;49.356;8.812;2023-05-02T05:15:28;9.50;99.90
33837;DHT22;20140;49.356;8.812;2023-05-02T05:17:54;9.50;99.90
33837;DHT22;20140;49.356;8.812;2023-05-02T05:20:19;9.50;99.90
33837;DHT22;20140;49.356;8.812;2023-05-02T05:22:45;9.50;99.90
33837;DHT22;20140;49.356;8.812;2023-05-02T05:25:10;9.70;99.90
33837;DHT22;20140;49.356;8.812;2023-05-02T05:27:36;9.80;99.90
33837;DHT22;20140;49.356;8.812;2023-05-02T05:30:05;9.80;99.90
33837;DHT22;20140;49.356;8.812;2023-05-02T05:32:34;9.90;99.90
33837;DHT22;20140;49.356;8.812;2023-05-02T05:35:00;9.80;99.90
33837;DHT22;20140;49.356;8.812;2023-05-02T05:37:26;9.90;99.90
33837;DHT22;20140;49.356;8.812;2023-05-02T05:39:51;10.00;99.90
33837;DHT22;20140;49.356;8.812;2023-05-02T05:42:17;10.00;99.90
33837;DHT22;20140;49.356;8.812;2023-05-02T05:44:42;10.20;99.90
33837;DHT22;20140;49.356;8.812;2023-05-02T05:47:08;10.20;99.90
33837;DHT22;20140;49.356;8.812;2023-05-02T05:49:33;10.40;99.90
33837;DHT22;20140;49.356;8.812;2023-05-02T05:52:01;10.40;99.90
33837;DHT22;20140;49.356;8.812;2023-05-02T05:54:27;10.50;99.90
33837;DHT22;20140;49.356;8.812;2023-05-02T05:56:52;10.50;99.90
33837;DHT22;20140;49.356;8.812;2023-05-02T05:59:18;10.60;99.90
33837;DHT22;20140;49.356;8.812;2023-05-02T06:01:44;10.80;99.90
33837;DHT22;20140;49.356;8.812;2023-05-02T06:04:09;11.00;99.90
33837;DHT22;20140;49.356;8.812;2023-05-02T06:06:35;11.00;99.90
33837;DHT22;20140;49.356;8.812;2023-05-02T06:09:01;11.00;99.90
33837;DHT22;20140;49.356;8.812;2023-05-02T06:11:26;11.20;99.90
33837;DHT22;20140;49.356;8.812;2023-05-02T06:13:52;11.20;99.90
33837;DHT22;20140;49.356;8.812;2023-05-02T06:16:18;11.30;99.90
33837;DHT22;20140;49.356;8.812;2023-05-02T06:18:45;11.30;99.90
33837;DHT22;20140;49.356;8.812;2023-05-02T06:21:10;11.30;99.90
33837;DHT22;20140;49.356;8.812;2023-05-02T06:23:36;11.30;99.90
33837;DHT22;20140;49.356;8.812;2023-05-02T06:26:02;11.40;99.90
33837;DHT22;20140;49.356;8.812;2023-05-02T06:28:28;11.40;99.90
33837;DHT22;20140;49.356;8.812;2023-05-02T06:31:02;11.50;99.90
33837;DHT22;20140;49.356;8.812;2023-05-02T06:33:29;11.60;99.90
33837;DHT22;20140;49.356;8.812;2023-05-02T06:35:54;11.60;99.90
33837;DHT22;20140;49.356;8.812;2023-05-02T06:38:20;11.70;99.90
33837;DHT22;20140;49.356;8.812;2023-05-02T06:40:47;11.70;99.90
33837;DHT22;20140;49.356;8.812;2023-05-02T06:43:12;11.90;99.90
33837;DHT22;20140;49.356;8.812;2023-05-02T06:45:39;12.00;99.90
33837;DHT22;20140;49.356;8.812;2023-05-02T06:48:05;12.10;99.90
33837;DHT22;20140;49.356;8.812;2023-05-02T06:50:31;12.10;99.90
33837;DHT22;20140;49.356;8.812;2023-05-02T06:52:57;12.20;99.90
33837;DHT22;20140;49.356;8.812;2023-05-02T06:55:22;12.30;99.90
33837;DHT22;20140;49.356;8.812;2023-05-02T06:57:49;12.30;99.90
33837;DHT22;20140;49.356;8.812;2023-05-02T07:00:18;12.30;99.90
33837;DHT22;20140;49.356;8.812;2023-05-02T07:02:48;12.30;99.90
33837;DHT22;20140;49.356;8.812;2023-05-02T07:05:14;12.40;99.90
33837;DHT22;20140;49.356;8.812;2023-05-02T07:07:43;12.30;99.90
33837;DHT22;20140;49.356;8.812;2023-05-02T07:10:10;12.40;99.90
33837;DHT22;20140;49.356;8.812;2023-05-02T07:12:36;12.50;99.90
33837;DHT22;20140;49.356;8.812;2023-05-02T07:15:04;12.60;99.90
33837;DHT22;20140;49.356;8.812;2023-05-02T07:17:30;12.60;99.90
33837;DHT22;20140;49.356;8.812;2023-05-02T07:19:56;12.70;99.90
33837;DHT22;20140;49.356;8.812;2023-05-02T07:22:21;12.80;99.90
33837;DHT22;20140;49.356;8.812;2023-05-02T07:24:47;12.70;99.90
33837;DHT22;20140;49.356;8.812;2023-05-02T07:27:13;12.80;99.90
33837;DHT22;20140;49.356;8.812;2023-05-02T07:29:39;12.80;99.90
33837;DHT22;20140;49.356;8.812;2023-05-02T07:32:04;12.70;99.90
33837;DHT22;20140;49.356;8.812;2023-05-02T07:34:31;12.80;99.90
33837;DHT22;20140;49.356;8.812;2023-05-02T07:36:57;12.90;99.90
33837;DHT22;20140;49.356;8.812;2023-05-02T07:39:23;12.90;99.90
33837;DHT22;20140;49.356;8.812;2023-05-02T07:41:52;13.00;99.90
33837;DHT22;20140;49.356;8.812;2023-05-02T07:44:18;13.00;99.90
33837;DHT22;20140;49.356;8.812;2023-05-02T07:46:44;13.10;99.90
33837;DHT22;20140;49.356;8.812;2023-05-02T07:49:09;13.20;99.90
33837;DHT22;20140;49.356;8.812;2023-05-02T07:51:35;13.20;99.90
33837;DHT22;20140;49.356;8.812;2023-05-02T07:54:00;13.10;99.90
33837;DHT22;20140;49.356;8.812;2023-05-02T07:56:26;13.20;99.90
33837;DHT22;20140;49.356;8.812;2023-05-02T07:58:52;13.30;99.90
33837;DHT22;20140;49.356;8.812;2023-05-02T08:01:18;13.50;99.90
33837;DHT22;20140;49.356;8.812;2023-05-02T08:03:44;13.60;99.90
33837;DHT22;20140;49.356;8.812;2023-05-02T08:06:10;13.70;99.90
33837;DHT22;20140;49.356;8.812;2023-05-02T08:08:37;13.80;99.90
33837;DHT22;20140;49.356;8.812;2023-05-02T08:11:02;14.20;99.90
33837;DHT22;20140;49.356;8.812;2023-05-02T08:13:28;14.10;99.90
33837;DHT22;20140;49.356;8.812;2023-05-02T08:15:54;13.80;99.90
33837;DHT22;20140;49.356;8.812;2023-05-02T08:18:26;13.80;99.90
33837;DHT22;20140;49.356;8.812;2023-05-02T08:20:54;13.90;99.90
33837;DHT22;20140;49.356;8.812;2023-05-02T08:23:21;13.80;99.90
33837;DHT22;20140;49.356;8.812;2023-05-02T08:25:46;14.00;99.90
33837;DHT22;20140;49.356;8.812;2023-05-02T08:28:12;13.80;99.90
33837;DHT22;20140;49.356;8.812;2023-05-02T08:30:37;13.90;99.90
33837;DHT22;20140;49.356;8.812;2023-05-02T08:33:03;13.90;99.90
33837;DHT22;20140;49.356;8.812;2023-05-02T08:35:28;14.00;99.90
33837;DHT22;20140;49.356;8.812;2023-05-02T08:37:57;14.20;99.90
33837;DHT22;20140;49.356;8.812;2023-05-02T08:40:22;14.20;99.90
33837;DHT22;20140;49.356;8.812;2023-05-02T08:42:48;14.10;99.90
33837;DHT22;20140;49.356;8.812;2023-05-02T08:45:15;14.10;99.90
33837;DHT22;20140;49.356;8.812;2023-05-02T08:47:41;14.30;99.90
33837;DHT22;20140;49.356;8.812;2023-05-02T08:50:10;14.50;99.90
33837;DHT22;20140;49.356;8.812;2023-05-02T08:52:36;14.70;99.90
33837;DHT22;20140;49.356;8.812;2023-05-02T08:55:04;14.70;99.90
33837;DHT22;20140;49.356;8.812;2023-05-02T08:57:30;14.60;99.90
33837;DHT22;20140;49.356;8.812;2023-05-02T08:59:56;14.40;99.90
33837;DHT22;20140;49.356;8.812;2023-05-02T09:04:53;14.80;99.90
33837;DHT22;20140;49.356;8.812;2023-05-02T09:07:21;14.90;99.90
33837;DHT22;20140;49.356;8.812;2023-05-02T09:09:47;15.10;99.90
33837;DHT22;20140;49.356;8.812;2023-05-02T09:12:13;15.20;99.90
33837;DHT22;20140;49.356;8.812;2023-05-02T09:14:42;15.40;99.90
33837;DHT22;20140;49.356;8.812;2023-05-02T09:17:08;15.70;99.90
33837;DHT22;20140;49.356;8.812;2023-05-02T09:19:33;15.90;99.90
33837;DHT22;20140;49.356;8.812;2023-05-02T09:22:00;15.90;99.90
33837;DHT22;20140;49.356;8.812;2023-05-02T09:24:25;15.60;99.90
33837;DHT22;20140;49.356;8.812;2023-05-02T09:27:02;15.40;99.90
33837;DHT22;20140;49.356;8.812;2023-05-02T09:29:29;15.50;99.90
33837;DHT22;20140;49.356;8.812;2023-05-02T09:32:00;15.40;99.90
33837;DHT22;20140;49.356;8.812;2023-05-02T09:34:26;15.50;99.90
33837;DHT22;20140;49.356;8.812;2023-05-02T09:36:51;15.40;99.90
33837;DHT22;20140;49.356;8.812;2023-05-02T09:39:23;15.40;99.90
33837;DHT22;20140;49.356;8.812;2023-05-02T09:41:49;15.70;99.90
33837;DHT22;20140;49.356;8.812;2023-05-02T09:44:20;15.50;99.90
33837;DHT22;20140;49.356;8.812;2023-05-02T09:46:53;15.50;99.90
33837;DHT22;20140;49.356;8.812;2023-05-02T09:49:41;15.50;99.90
33837;DHT22;20140;49.356;8.812;2023-05-02T09:52:11;15.40;99.90
33837;DHT22;20140;49.356;8.812;2023-05-02T09:54:37;15.10;99.90
33837;DHT22;20140;49.356;8.812;2023-05-02T09:57:04;15.10;99.90
33837;DHT22;20140;49.356;8.812;2023-05-02T09:59:31;15.20;99.90
33837;DHT22;20140;49.356;8.812;2023-05-02T10:02:06;15.20;99.90
33837;DHT22;20140;49.356;8.812;2023-05-02T10:04:33;15.20;99.90
33837;DHT22;20140;49.356;8.812;2023-05-02T10:07:01;15.10;99.90
33837;DHT22;20140;49.356;8.812;2023-05-02T10:09:28;15.10;99.90
33837;DHT22;20140;49.356;8.812;2023-05-02T10:11:57;15.00;99.90
33837;DHT22;20140;49.356;8.812;2023-05-02T10:14:28;14.80;99.90
33837;DHT22;20140;49.356;8.812;2023-05-02T10:17:14;15.00;99.90
33837;DHT22;20140;49.356;8.812;2023-05-02T10:20:07;15.30;99.90
33837;DHT22;20140;49.356;8.812;2023-05-02T10:22:34;15.50;99.90
33837;DHT22;20140;49.356;8.812;2023-05-02T10:25:00;15.80;99.90
33837;DHT22;20140;49.356;8.812;2023-05-02T10:27:29;15.90;99.90
33837;DHT22;20140;49.356;8.812;2023-05-02T10:29:57;15.50;99.90
33837;DHT22;20140;49.356;8.812;2023-05-02T10:32:23;15.50;99.90
33837;DHT22;20140;49.356;8.812;2023-05-02T10:34:53;15.60;99.90
33837;DHT22;20140;49.356;8.812;2023-05-02T10:37:21;15.90;99.90
33837;DHT22;20140;49.356;8.812;2023-05-02T10:39:47;16.00;99.90
33837;DHT22;20140;49.356;8.812;2023-05-02T10:42:13;16.00;99.90
33837;DHT22;20140;49.356;8.812;2023-05-02T10:44:39;15.80;99.90
33837;DHT22;20140;49.356;8.812;2023-05-02T10:50:01;15.40;99.90
33837;DHT22;20140;49.356;8.812;2023-05-02T10:52:34;15.70;99.90
33837;DHT22;20140;49.356;8.812;2023-05-02T10:55:21;15.90;99.90
33837;DHT22;20140;49.356;8.812;2023-05-02T11:00:29;16.50;99.90
33837;DHT22;20140;49.356;8.812;2023-05-02T11:02:55;16.40;99.90
33837;DHT22;20140;49.356;8.812;2023-05-02T11:05:21;16.30;99.90
33837;DHT22;20140;49.356;8.812;2023-05-02T11:07:48;16.60;99.90
33837;DHT22;20140;49.356;8.812;2023-05-02T11:12:57;16.50;99.90
33837;DHT22;20140;49.356;8.812;2023-05-02T11:20:29;16.10;99.90
33837;DHT22;20140;49.356;8.812;2023-05-02T11:22:57;16.30;99.90
33837;DHT22;20140;49.356;8.812;2023-05-02T11:27:58;16.40;99.90
33837;DHT22;20140;49.356;8.812;2023-05-02T11:30:37;16.40;99.90
33837;DHT22;20140;49.356;8.812;2023-05-02T11:35:29;16.20;99.90
33837;DHT22;20140;49.356;8.812;2023-05-02T11:38:00;16.30;99.90
33837;DHT22;20140;49.356;8.812;2023-05-02T11:40:30;16.50;99.90
33837;DHT22;20140;49.356;8.812;2023-05-02T11:42:57;16.20;99.90
33837;DHT22;20140;49.356;8.812;2023-05-02T11:45:33;16.50;99.90
33837;DHT22;20140;49.356;8.812;2023-05-02T11:48:04;17.20;99.90
33837;DHT22;20140;49.356;8.812;2023-05-02T11:50:31;17.30;99.90
33837;DHT22;20140;49.356;8.812;2023-05-02T11:52:57;17.10;99.90
33837;DHT22;20140;49.356;8.812;2023-05-02T11:55:23;17.00;99.90
33837;DHT22;20140;49.356;8.812;2023-05-02T11:57:48;16.90;99.90
33837;DHT22;20140;49.356;8.812;2023-05-02T12:00:14;17.20;99.90
33837;DHT22;20140;49.356;8.812;2023-05-02T12:02:45;17.40;99.90
33837;DHT22;20140;49.356;8.812;2023-05-02T12:05:12;17.20;99.90
33837;DHT22;20140;49.356;8.812;2023-05-02T12:07:43;17.00;99.90
33837;DHT22;20140;49.356;8.812;2023-05-02T12:10:10;16.80;99.90
33837;DHT22;20140;49.356;8.812;2023-05-02T12:12:36;16.40;99.90
33837;DHT22;20140;49.356;8.812;2023-05-02T12:15:09;16.30;99.90
33837;DHT22;20140;49.356;8.812;2023-05-02T12:17:44;16.30;99.90
33837;DHT22;20140;49.356;8.812;2023-05-02T12:20:10;16.30;99.90
33837;DHT22;20140;49.356;8.812;2023-05-02T12:22:36;16.60;99.90
33837;DHT22;20140;49.356;8.812;2023-05-02T12:25:03;16.80;99.90
33837;DHT22;20140;49.356;8.812;2023-05-02T12:27:29;16.60;99.90
33837;DHT22;20140;49.356;8.812;2023-05-02T12:29:57;17.20;99.90
33837;DHT22;20140;49.356;8.812;2023-05-02T12:32:30;17.50;99.90
33837;DHT22;20140;49.356;8.812;2023-05-02T12:34:57;17.70;99.90
33837;DHT22;20140;49.356;8.812;2023-05-02T12:37:26;17.80;99.90
33837;DHT22;20140;49.356;8.812;2023-05-02T12:39:52;17.80;99.90
33837;DHT22;20140;49.356;8.812;2023-05-02T12:42:19;17.90;99.90
33837;DHT22;20140;49.356;8.812;2023-05-02T12:44:46;18.00;99.90
33837;DHT22;20140;49.356;8.812;2023-05-02T12:47:13;17.90;99.90
33837;DHT22;20140;49.356;8.812;2023-05-02T12:49:56;18.40;99.90
33837;DHT22;20140;49.356;8.812;2023-05-02T12:52:44;18.90;99.90
33837;DHT22;20140;49.356;8.812;2023-05-02T12:55:20;18.60;99.90
33837;DHT22;20140;49.356;8.812;2023-05-02T12:57:46;18.50;99.90
33837;DHT22;20140;49.356;8.812;2023-05-02T13:00:12;18.60;99.90
33837;DHT22;20140;49.356;8.812;2023-05-02T13:02:40;18.40;99.90
33837;DHT22;20140;49.356;8.812;2023-05-02T13:05:19;18.60;99.90
33837;DHT22;20140;49.356;8.812;2023-05-02T13:07:45;19.20;99.90
33837;DHT22;20140;49.356;8.812;2023-05-02T13:10:10;19.10;99.90
33837;DHT22;20140;49.356;8.812;2023-05-02T13:12:37;19.60;99.90
33837;DHT22;20140;49.356;8.812;2023-05-02T13:15:04;18.70;99.90
33837;DHT22;20140;49.356;8.812;2023-05-02T13:17:30;18.90;99.80
33837;DHT22;20140;49.356;8.812;2023-05-02T13:19:56;19.20;98.40
33837;DHT22;20140;49.356;8.812;2023-05-02T13:22:22;19.50;97.70
33837;DHT22;20140;49.356;8.812;2023-05-02T13:24:47;19.60;97.60
33837;DHT22;20140;49.356;8.812;2023-05-02T13:27:13;19.10;99.30
33837;DHT22;20140;49.356;8.812;2023-05-02T13:29:39;19.40;99.80
33837;DHT22;20140;49.356;8.812;2023-05-02T13:32:05;20.50;99.00
33837;DHT22;20140;49.356;8.812;2023-05-02T13:34:30;20.50;98.30
33837;DHT22;20140;49.356;8.812;2023-05-02T13:36:56;19.70;99.30
33837;DHT22;20140;49.356;8.812;2023-05-02T13:39:21;20.00;99.20
33837;DHT22;20140;49.356;8.812;2023-05-02T13:41:47;19.70;97.60
33837;DHT22;20140;49.356;8.812;2023-05-02T13:44:12;20.00;98.40
33837;DHT22;20140;49.356;8.812;2023-05-02T13:46:38;20.40;96.60
33837;DHT22;20140;49.356;8.812;2023-05-02T13:49:04;20.10;96.80
33837;DHT22;20140;49.356;8.812;2023-05-02T13:51:29;19.50;96.20
33837;DHT22;20140;49.356;8.812;2023-05-02T13:53:59;19.30;97.40
33837;DHT22;20140;49.356;8.812;2023-05-02T13:56:24;19.10;96.70
33837;DHT22;20140;49.356;8.812;2023-05-02T13:58:50;19.60;94.70
33837;DHT22;20140;49.356;8.812;2023-05-02T14:01:16;19.90;94.50
33837;DHT22;20140;49.356;8.812;2023-05-02T14:03:41;19.20;94.00
33837;DHT22;20140;49.356;8.812;2023-05-02T14:06:07;19.90;92.40
33837;DHT22;20140;49.356;8.812;2023-05-02T14:08:33;19.90;92.40
33837;DHT22;20140;49.356;8.812;2023-05-02T14:11:00;19.60;91.50
33837;DHT22;20140;49.356;8.812;2023-05-02T14:13:26;19.90;90.70
33837;DHT22;20140;49.356;8.812;2023-05-02T14:15:52;20.10;89.70
33837;DHT22;20140;49.356;8.812;2023-05-02T14:18:18;20.40;88.90
33837;DHT22;20140;49.356;8.812;2023-05-02T14:20:43;20.60;89.70
33837;DHT22;20140;49.356;8.812;2023-05-02T14:23:09;21.20;88.40
33837;DHT22;20140;49.356;8.812;2023-05-02T14:25:35;21.00;84.60
33837;DHT22;20140;49.356;8.812;2023-05-02T14:28:01;22.50;84.00
33837;DHT22;20140;49.356;8.812;2023-05-02T14:30:27;21.20;85.20
33837;DHT22;20140;49.356;8.812;2023-05-02T14:32:53;22.00;84.70
33837;DHT22;20140;49.356;8.812;2023-05-02T14:35:19;21.50;90.00
33837;DHT22;20140;49.356;8.812;2023-05-02T14:37:44;21.70;87.80
33837;DHT22;20140;49.356;8.812;2023-05-02T14:40:11;21.90;86.50
33837;DHT22;20140;49.356;8.812;2023-05-02T14:42:38;21.40;85.60
33837;DHT22;20140;49.356;8.812;2023-05-02T14:45:04;22.50;87.20
33837;DHT22;20140;49.356;8.812;2023-05-02T14:47:30;22.90;81.00
33837;DHT22;20140;49.356;8.812;2023-05-02T14:49:56;22.10;83.20
33837;DHT22;20140;49.356;8.812;2023-05-02T14:52:21;22.00;86.40
33837;DHT22;20140;49.356;8.812;2023-05-02T14:54:47;21.60;84.00
33837;DHT22;20140;49.356;8.812;2023-05-02T14:57:13;22.00;83.10
33837;DHT22;20140;49.356;8.812;2023-05-02T14:59:39;21.90;86.70
33837;DHT22;20140;49.356;8.812;2023-05-02T15:02:06;22.40;85.00
33837;DHT22;20140;49.356;8.812;2023-05-02T15:04:31;23.40;80.70
33837;DHT22;20140;49.356;8.812;2023-05-02T15:06:58;23.30;78.10
33837;DHT22;20140;49.356;8.812;2023-05-02T15:09:24;21.60;78.70
33837;DHT22;20140;49.356;8.812;2023-05-02T15:11:51;22.00;79.10
33837;DHT22;20140;49.356;8.812;2023-05-02T15:14:17;22.80;76.30
33837;DHT22;20140;49.356;8.812;2023-05-02T15:16:42;20.60;84.80
33837;DHT22;20140;49.356;8.812;2023-05-02T15:19:08;19.30;91.70
33837;DHT22;20140;49.356;8.812;2023-05-02T15:21:34;19.00;92.50
33837;DHT22;20140;49.356;8.812;2023-05-02T15:24:00;18.60;93.40
33837;DHT22;20140;49.356;8.812;2023-05-02T15:26:25;19.70;92.40
33837;DHT22;20140;49.356;8.812;2023-05-02T15:28:51;19.50;92.30
33837;DHT22;20140;49.356;8.812;2023-05-02T15:31:17;19.20;92.80
33837;DHT22;20140;49.356;8.812;2023-05-02T15:33:42;18.70;92.90
33837;DHT22;20140;49.356;8.812;2023-05-02T15:36:08;18.60;94.40
33837;DHT22;20140;49.356;8.812;2023-05-02T15:38:34;18.60;94.30
33837;DHT22;20140;49.356;8.812;2023-05-02T15:41:03;18.40;94.10
33837;DHT22;20140;49.356;8.812;2023-05-02T15:43:29;18.70;94.50
33837;DHT22;20140;49.356;8.812;2023-05-02T15:45:59;18.60;94.90
33837;DHT22;20140;49.356;8.812;2023-05-02T15:48:29;19.10;94.00
33837;DHT22;20140;49.356;8.812;2023-05-02T15:50:57;19.70;92.90
33837;DHT22;20140;49.356;8.812;2023-05-02T15:53:22;20.20;94.30
33837;DHT22;20140;49.356;8.812;2023-05-02T15:55:52;19.90;90.10
33837;DHT22;20140;49.356;8.812;2023-05-02T15:58:18;19.40;92.00
33837;DHT22;20140;49.356;8.812;2023-05-02T16:00:44;19.90;87.20
33837;DHT22;20140;49.356;8.812;2023-05-02T16:03:11;20.20;86.80
33837;DHT22;20140;49.356;8.812;2023-05-02T16:05:37;20.00;85.70
33837;DHT22;20140;49.356;8.812;2023-05-02T16:08:03;19.50;82.90
33837;DHT22;20140;49.356;8.812;2023-05-02T16:10:29;19.10;81.70
33837;DHT22;20140;49.356;8.812;2023-05-02T16:12:55;18.70;81.60
33837;DHT22;20140;49.356;8.812;2023-05-02T16:15:21;18.40;82.40